createdAt,value
2022-12-25T00:00:00.289Z,85.4
2022-12-25T00:10:00.255Z,86.9
2022-12-25T00:20:00.741Z,88.9
2022-12-25T00:30:00.235Z,88.7
2022-12-25T00:40:00.279Z,89.3
2022-12-25T00:50:00.231Z,89.1
2022-12-25T01:00:00.287Z,90.9
2022-12-25T01:10:00.251Z,89.0
2022-12-25T01:20:00.737Z,87.7
2022-12-25T01:30:00.280Z,86.8
2022-12-25T01:40:00.322Z,87.1
2022-12-25T01:50:00.248Z,87.3
2022-12-25T02:00:00.320Z,88.6
2022-12-25T02:10:00.249Z,88.8
2022-12-25T02:20:00.247Z,90.2
2022-12-25T02:30:00.324Z,89.5
2022-12-25T02:40:00.478Z,90.5
2022-12-25T02:50:00.293Z,91.3
2022-12-25T03:00:00.319Z,89.5
2022-12-25T03:10:00.262Z,87.7
2022-12-25T03:20:00.507Z,85.9
2022-12-25T03:30:00.825Z,85.2
2022-12-25T03:40:00.496Z,83.8
2022-12-25T03:50:00.624Z,84.1
2022-12-25T04:00:00.641Z,84.1
2022-12-25T04:10:00.421Z,84.8
2022-12-25T04:20:00.575Z,85.5
2022-12-25T04:30:00.601Z,87.0
2022-12-25T04:40:00.623Z,87.6
2022-12-25T04:50:00.473Z,87.1
2022-12-25T05:00:00.346Z,87.9
2022-12-25T05:10:00.241Z,87.6
2022-12-25T05:20:00.253Z,88.3
2022-12-25T05:30:00.275Z,88.5
2022-12-25T05:40:00.370Z,86.9
2022-12-25T05:50:00.237Z,86.0
2022-12-25T06:00:00.324Z,85.1
2022-12-25T06:10:00.402Z,84.4
2022-12-25T06:20:00.262Z,85.1
2022-12-25T06:30:00.275Z,87.7
2022-12-25T06:40:00.297Z,89.2
2022-12-25T06:50:00.240Z,91.1
2022-12-25T07:00:00.372Z,93.2
2022-12-25T07:10:00.306Z,94.0
2022-12-25T07:20:00.268Z,95.0
2022-12-25T07:30:00.252Z,94.1
2022-12-25T07:40:00.276Z,92.2
2022-12-25T07:50:00.265Z,90.7
2022-12-25T08:00:00.314Z,86.4
2022-12-25T08:10:00.255Z,83.1
2022-12-25T08:20:00.275Z,82.3
2022-12-25T08:30:00.264Z,80.2
2022-12-25T08:40:00.286Z,79.9
2022-12-25T08:50:00.271Z,80.2
2022-12-25T09:00:00.290Z,78.6
2022-12-25T09:10:00.241Z,75.8
2022-12-25T09:20:00.287Z,70.6
2022-12-25T09:30:00.301Z,71.1
2022-12-25T09:40:00.268Z,70.4
2022-12-25T09:50:00.264Z,66.0
2022-12-25T10:00:00.273Z,63.5
2022-12-25T10:10:00.268Z,61.9
2022-12-25T10:20:00.320Z,61.4
2022-12-25T10:30:00.259Z,62.5
2022-12-25T10:40:00.248Z,58.9
2022-12-25T10:50:00.260Z,56.4
2022-12-25T11:00:00.269Z,54.6
2022-12-25T11:10:04.638Z,53.9
2022-12-25T11:20:00.279Z,50.9
2022-12-25T11:30:00.299Z,49.4
2022-12-25T11:40:00.261Z,48.2
2022-12-25T11:50:01.118Z,46.5
2022-12-25T12:00:00.283Z,46.5
2022-12-25T12:10:00.250Z,47.6
2022-12-25T12:20:00.307Z,48.4
2022-12-25T12:30:00.240Z,48.2
2022-12-25T12:40:00.281Z,52.8
2022-12-25T12:50:00.303Z,55.7
2022-12-25T13:00:06.551Z,55.8
2022-12-25T13:10:00.273Z,55.0
2022-12-25T13:20:00.344Z,50.4
2022-12-25T13:30:00.292Z,49.4
2022-12-25T13:40:00.303Z,52.4
2022-12-25T13:50:00.245Z,56.2
2022-12-25T14:00:00.354Z,59.2
2022-12-25T14:10:00.260Z,60.1
2022-12-25T14:20:05.981Z,58.9
2022-12-25T14:30:00.312Z,61.0
2022-12-25T14:40:00.264Z,63.9
2022-12-25T14:50:00.267Z,64.2
2022-12-25T15:00:00.482Z,65.4
2022-12-25T15:10:36.468Z,64.4
2022-12-25T15:20:00.247Z,69.4
2022-12-25T15:30:09.850Z,70.6
2022-12-25T15:40:00.248Z,70.2
2022-12-25T15:50:00.306Z,71.2
2022-12-25T16:00:00.309Z,71.4
2022-12-25T16:10:00.291Z,74.3
2022-12-25T16:20:00.334Z,74.4
2022-12-25T16:30:00.327Z,77.0
2022-12-25T16:40:00.391Z,76.7
2022-12-25T16:50:00.454Z,79.2
2022-12-25T17:00:00.311Z,79.8
2022-12-25T17:10:00.246Z,79.3
2022-12-25T17:20:00.260Z,80.1
2022-12-25T17:30:00.236Z,79.7
2022-12-25T17:40:00.305Z,78.6
2022-12-25T17:50:00.278Z,78.3
2022-12-25T18:00:00.350Z,81.3
2022-12-25T18:10:00.244Z,82.1
2022-12-25T18:20:00.251Z,81.8
2022-12-25T18:30:00.280Z,84.6
2022-12-25T18:40:00.266Z,85.4
2022-12-25T18:50:00.274Z,86.9
2022-12-25T19:00:00.307Z,85.5
2022-12-25T19:10:00.246Z,82.2
2022-12-25T19:20:00.243Z,79.6
2022-12-25T19:30:00.289Z,78.3
2022-12-25T19:40:00.312Z,77.5
2022-12-25T19:50:03.145Z,77.1
2022-12-25T20:00:00.454Z,76.8
2022-12-25T20:10:00.245Z,75.7
2022-12-25T20:20:00.249Z,76.1
2022-12-25T20:30:00.267Z,75.6
2022-12-25T20:40:00.344Z,76.6
2022-12-25T20:50:00.254Z,77.0
2022-12-25T21:00:00.284Z,77.1
2022-12-25T21:10:00.272Z,76.8
2022-12-25T21:20:00.263Z,76.1
2022-12-25T21:30:00.291Z,76.1
2022-12-25T21:40:00.266Z,76.5
2022-12-25T21:50:00.248Z,76.1
2022-12-25T22:00:00.262Z,75.8
2022-12-25T22:10:00.278Z,75.9
2022-12-25T22:20:00.253Z,77.1
2022-12-25T22:30:00.272Z,78.2
2022-12-25T22:40:00.282Z,80.2
2022-12-25T22:50:00.236Z,79.5
2022-12-25T23:00:00.359Z,79.2
2022-12-25T23:10:00.276Z,79.3
2022-12-25T23:20:00.245Z,79.2
2022-12-25T23:30:00.333Z,79.3
2022-12-25T23:40:00.284Z,80.0
2022-12-25T23:50:00.311Z,81.5
